Time;durP1;ratioP1;P1;durP2;ratioP2;P2;SDS_P1;SDS_P2;PMS_P1;PMS_P2;Temp;Humidity;BMP_temperature;BMP_pressure;BME280_temperature;BME280_humidity;BME280_pressure;Samples;Min_cycle;Max_cycle;Signal;HPM_P1;HPM_P2
2023/07/23 00:02:19;;;;;;;;;;;;;;;17.33;100.00;95582.22;10483528;28;1907;-79
2023/07/23 00:07:30;;;;;;;;;;;;;;;17.29;100.00;95584.78;10479049;28;1947;-80
2023/07/23 00:12:46;;;;;;;;;;;;;;;17.24;100.00;95582.22;10482928;28;1820;-79
2023/07/23 00:17:56;;;;;;;;;;;;;;;17.19;100.00;95587.81;10479556;28;1942;-79
2023/07/23 00:23:02;;;;;;;;;;;;;;;17.26;100.00;95577.28;10477896;28;2001;-80
2023/07/23 00:28:07;;;;;;;;;;;;;;;17.19;100.00;95585.13;10477145;28;1911;-81
2023/07/23 00:38:44;;;;;;;;;;;;;;;17.09;100.00;95585.41;10474780;28;4480;-79
2023/07/23 00:49:04;;;;;;;;;;;;;;;16.98;100.00;95580.28;10477574;28;2041;-80
2023/07/23 00:54:11;;;;;;;;;;;;;;;16.95;100.00;95580.16;10480431;28;1963;-79
2023/07/23 00:59:21;;;;;;;;;;;;;;;16.91;100.00;95579.19;10481281;28;2014;-79
2023/07/23 01:04:24;;;;;;;;;;;;;;;16.88;100.00;95574.41;10487976;28;1890;-80
2023/07/23 01:09:28;;;;;;;;;;;;;;;16.69;100.00;95566.53;10489797;28;1944;-80
2023/07/23 01:14:33;;;;;;;;;;;;;;;16.73;100.00;95570.22;10487836;28;2154;-80
2023/07/23 01:19:45;;;;;;;;;;;;;;;16.68;100.00;95564.94;10489515;28;1991;-79
2023/07/23 01:24:53;;;;;;;;;;;;;;;16.77;100.00;95562.25;10500512;28;1983;-79
2023/07/23 01:30:02;;;;;;;;;;;;;;;16.74;100.00;95564.47;10481815;28;2271;-79
2023/07/23 01:35:06;;;;;;;;;;;;;;;16.67;100.00;95550.56;10481686;28;2194;-80
2023/07/23 01:40:09;;;;;;;;;;;;;;;16.64;100.00;95553.09;10482820;28;4556;-79
2023/07/23 01:45:16;;;;;;;;;;;;;;;16.56;100.00;95551.97;10480673;28;1940;-79
2023/07/23 01:50:22;;;;;;;;;;;;;;;16.43;100.00;95558.34;10483336;28;1958;-79
2023/07/23 01:55:29;;;;;;;;;;;;;;;16.36;100.00;95555.28;10489183;28;1903;-79
2023/07/23 02:00:36;;;;;;;;;;;;;;;16.25;100.00;95551.25;10484865;28;2012;-80
2023/07/23 02:05:46;;;;;;;;;;;;;;;16.27;100.00;95549.81;10486808;28;2216;-79
2023/07/23 02:10:55;;;;;;;;;;;;;;;16.11;100.00;95551.38;10486678;28;1959;-79
2023/07/23 02:16:00;;;;;;;;;;;;;;;16.10;100.00;95544.38;10482189;28;1968;-79
2023/07/23 02:21:08;;;;;;;;;;;;;;;16.10;100.00;95544.38;10485308;28;2199;-78
2023/07/23 02:26:18;;;;;;;;;;;;;;;16.25;100.00;95543.13;10488213;28;2263;-79
2023/07/23 02:31:26;;;;;;;;;;;;;;;16.22;100.00;95547.25;10482754;28;1998;-80
2023/07/23 02:36:37;;;;;;;;;;;;;;;16.16;100.00;95552.03;10476457;28;2036;-79
2023/07/23 02:41:48;;;;;;;;;;;;;;;16.09;100.00;95557.09;10477009;28;1961;-78
2023/07/23 02:46:55;;;;;;;;;;;;;;;16.04;100.00;95551.84;10483898;28;2014;-79
2023/07/23 02:52:05;;;;;;;;;;;;;;;16.15;100.00;95552.34;10485087;28;1991;-77
2023/07/23 02:57:13;;;;;;;;;;;;;;;16.23;100.00;95556.22;10498363;28;2015;-77
2023/07/23 03:02:19;;;;;;;;;;;;;;;16.35;100.00;95556.38;10480741;28;2025;-79
2023/07/23 03:07:36;;;;;;;;;;;;;;;16.32;100.00;95554.31;10485721;28;1916;-79
2023/07/23 03:12:47;;;;;;;;;;;;;;;16.40;100.00;95550.81;10487553;28;2352;-79
2023/07/23 03:17:53;;;;;;;;;;;;;;;16.46;100.00;95552.25;10486349;28;1975;-79
2023/07/23 03:22:57;;;;;;;;;;;;;;;16.30;100.00;95549.19;10475266;28;2346;-78
2023/07/23 03:28:04;;;;;;;;;;;;;;;16.21;100.00;95548.38;10484017;28;1963;-79
2023/07/23 03:33:09;;;;;;;;;;;;;;;16.02;100.00;95554.03;10485336;28;1996;-80
2023/07/23 03:38:22;;;;;;;;;;;;;;;16.00;100.00;95545.44;10486497;28;4537;-80
2023/07/23 03:43:29;;;;;;;;;;;;;;;15.98;100.00;95547.66;10484067;28;1977;-79
2023/07/23 03:48:39;;;;;;;;;;;;;;;16.03;100.00;95550.25;10481424;28;1899;-79
2023/07/23 03:53:46;;;;;;;;;;;;;;;16.11;100.00;95541.34;10495609;28;1949;-80
2023/07/23 03:59:07;;;;;;;;;;;;;;;16.38;100.00;95534.84;10480331;28;1999;-80
2023/07/23 04:04:19;;;;;;;;;;;;;;;16.65;100.00;95536.50;10483556;28;1903;-80
2023/07/23 04:09:24;;;;;;;;;;;;;;;16.91;100.00;95536.53;10481849;28;2117;-81
2023/07/23 04:14:44;;;;;;;;;;;;;;;17.05;100.00;95536.41;10478991;28;1941;-81
2023/07/23 04:19:48;;;;;;;;;;;;;;;17.27;100.00;95527.25;10484298;28;2047;-79
2023/07/23 04:24:56;;;;;;;;;;;;;;;17.37;100.00;95535.09;10486007;28;2210;-78
2023/07/23 04:30:00;;;;;;;;;;;;;;;17.61;100.00;95526.38;10491769;28;2037;-79
2023/07/23 04:35:06;;;;;;;;;;;;;;;18.03;100.00;95526.59;10484436;28;2242;-80
2023/07/23 04:40:12;;;;;;;;;;;;;;;18.22;100.00;95532.41;10483726;28;4600;-80
2023/07/23 04:45:17;;;;;;;;;;;;;;;18.66;100.00;95519.34;10481436;28;1934;-80
2023/07/23 04:50:25;;;;;;;;;;;;;;;18.80;100.00;95519.13;10483190;28;1865;-79
2023/07/23 05:00:50;;;;;;;;;;;;;;;19.32;100.00;95524.91;10484627;28;1923;-79
2023/07/23 05:05:58;;;;;;;;;;;;;;;19.56;100.00;95532.38;10480952;28;1964;-79
2023/07/23 05:11:11;;;;;;;;;;;;;;;19.66;100.00;95539.38;10481951;28;1874;-80
2023/07/23 05:16:16;;;;;;;;;;;;;;;19.97;100.00;95534.19;10482245;28;1855;-80
2023/07/23 05:21:22;;;;;;;;;;;;;;;20.15;100.00;95542.16;10479191;28;1967;-78
2023/07/23 05:26:35;;;;;;;;;;;;;;;20.39;100.00;95544.91;10479349;28;1876;-80
2023/07/23 05:31:48;;;;;;;;;;;;;;;20.62;100.00;95536.28;10482533;28;1818;-79
2023/07/23 05:37:01;;;;;;;;;;;;;;;20.90;100.00;95539.88;10492567;28;4452;-80
2023/07/23 05:42:12;;;;;;;;;;;;;;;21.13;100.00;95539.38;10478241;28;2086;-80
2023/07/23 05:47:22;;;;;;;;;;;;;;;21.16;100.00;95546.84;10483491;28;1957;-80
2023/07/23 05:52:35;;;;;;;;;;;;;;;21.52;100.00;95546.75;10489338;28;1872;-80
2023/07/23 05:57:38;;;;;;;;;;;;;;;21.73;100.00;95548.47;10498092;28;1880;-77
2023/07/23 06:02:42;;;;;;;;;;;;;;;22.04;100.00;95548.50;10486476;28;1910;-76
2023/07/23 06:13:23;;;;;;;;;;;;;;;22.78;100.00;95547.97;10484831;28;2414;-77
2023/07/23 06:18:35;;;;;;;;;;;;;;;23.04;100.00;95542.69;10481847;28;1905;-78
2023/07/23 06:23:47;;;;;;;;;;;;;;;23.30;100.00;95553.03;10485110;28;1990;-78
2023/07/23 06:28:53;;;;;;;;;;;;;;;23.56;99.14;95544.13;10483442;28;2251;-78
2023/07/23 06:34:05;;;;;;;;;;;;;;;23.67;100.00;95536.94;10474198;28;1947;-78
2023/07/23 06:39:25;;;;;;;;;;;;;;;23.84;100.00;95543.91;10489134;28;4481;-78
2023/07/23 06:44:29;;;;;;;;;;;;;;;23.82;100.00;95550.91;10496567;28;1980;-78
2023/07/23 06:49:34;;;;;;;;;;;;;;;23.93;99.69;95546.44;10485744;28;1942;-78
2023/07/23 06:54:42;;;;;;;;;;;;;;;23.99;98.04;95550.47;10483919;28;2074;-77
2023/07/23 06:59:48;;;;;;;;;;;;;;;24.25;96.03;95547.78;10483791;28;2106;-78
2023/07/23 07:04:52;;;;;;;;;;;;;;;24.30;94.50;95543.13;10479570;28;1932;-78
2023/07/23 07:09:57;;;;;;;;;;;;;;;24.38;93.51;95550.38;10480804;28;2181;-77
2023/07/23 07:15:03;;;;;;;;;;;;;;;24.72;88.80;95540.28;10483639;28;1844;-78
2023/07/23 07:20:10;;;;;;;;;;;;;;;24.82;87.94;95542.41;10481730;28;1988;-78
2023/07/23 07:25:24;;;;;;;;;;;;;;;24.67;86.09;95540.59;10461914;28;1895;-78
2023/07/23 07:30:29;;;;;;;;;;;;;;;24.36;87.50;95542.47;10479101;28;1927;-78
2023/07/23 07:35:32;;;;;;;;;;;;;;;24.88;84.51;95532.69;10485779;28;1900;-78
2023/07/23 07:40:40;;;;;;;;;;;;;;;25.06;79.60;95525.47;10480714;28;4534;-86
2023/07/23 07:45:59;;;;;;;;;;;;;;;25.23;72.86;95526.09;10487432;28;1903;-77
2023/07/23 07:51:12;;;;;;;;;;;;;;;25.53;70.89;95520.56;10482895;28;1935;-83
2023/07/23 07:56:27;;;;;;;;;;;;;;;25.81;69.65;95512.63;10477682;28;1769;-75
2023/07/23 08:01:31;;;;;;;;;;;;;;;26.14;66.53;95516.47;10474517;28;1906;-73
2023/07/23 08:06:38;;;;;;;;;;;;;;;26.33;66.06;95502.47;10473423;28;2464;-74
2023/07/23 08:11:50;;;;;;;;;;;;;;;26.56;58.63;95504.25;10483667;28;1897;-77
2023/07/23 08:17:03;;;;;;;;;;;;;;;27.05;56.06;95502.97;10488979;28;1905;-75
2023/07/23 08:22:08;;;;;;;;;;;;;;;26.82;54.71;95501.25;10473384;28;1926;-74
2023/07/23 08:27:14;;;;;;;;;;;;;;;27.29;54.22;95496.78;10479523;28;1850;-74
2023/07/23 08:32:33;;;;;;;;;;;;;;;27.52;53.32;95499.25;10473846;28;1925;-75
2023/07/23 08:37:49;;;;;;;;;;;;;;;26.67;55.44;95497.63;10478380;28;4604;-75
2023/07/23 08:42:54;;;;;;;;;;;;;;;27.09;55.24;95487.25;10468011;28;3835;-75
2023/07/23 08:47:57;;;;;;;;;;;;;;;26.98;53.61;95486.41;10475290;28;1899;-75
2023/07/23 08:53:03;;;;;;;;;;;;;;;27.57;48.54;95489.81;10460232;28;1901;-75
2023/07/23 08:58:07;;;;;;;;;;;;;;;27.97;47.32;95491.50;10471975;28;2022;-74
2023/07/23 09:03:25;;;;;;;;;;;;;;;27.85;46.95;95491.84;10474608;28;1973;-75
2023/07/23 09:08:38;;;;;;;;;;;;;;;27.75;46.67;95490.69;10488994;28;1927;-75
2023/07/23 09:13:43;;;;;;;;;;;;;;;27.92;45.43;95478.84;10478305;28;1945;-75
2023/07/23 09:18:48;;;;;;;;;;;;;;;28.30;44.35;95476.50;10475448;28;1903;-76
2023/07/23 09:23:53;;;;;;;;;;;;;;;28.57;46.46;95473.34;10489517;28;1909;-76
2023/07/23 09:29:05;;;;;;;;;;;;;;;28.19;43.01;95461.91;10484670;28;1839;-74
2023/07/23 09:34:09;;;;;;;;;;;;;;;28.88;43.58;95461.44;10484593;28;1919;-75
2023/07/23 09:39:16;;;;;;;;;;;;;;;29.15;42.66;95458.22;10482941;28;4714;-75
2023/07/23 09:44:19;;;;;;;;;;;;;;;29.05;39.61;95468.91;10487120;28;1989;-75
2023/07/23 09:49:22;;;;;;;;;;;;;;;29.31;38.82;95459.31;10484818;28;1895;-74
2023/07/23 09:54:27;;;;;;;;;;;;;;;29.10;38.50;95455.88;10484575;28;1816;-75
2023/07/23 09:59:34;;;;;;;;;;;;;;;28.97;40.07;95448.00;10483809;28;2292;-77
2023/07/23 10:04:39;;;;;;;;;;;;;;;28.17;41.41;95458.72;10485501;28;1906;-75
2023/07/23 10:09:51;;;;;;;;;;;;;;;28.36;42.71;95444.53;10482292;28;1859;-76
2023/07/23 10:14:57;;;;;;;;;;;;;;;28.77;41.50;95457.91;10483226;28;2095;-77
2023/07/23 10:20:01;;;;;;;;;;;;;;;28.17;38.92;95450.44;10481593;28;1926;-75
2023/07/23 10:25:06;;;;;;;;;;;;;;;28.47;38.65;95436.25;10482619;28;1914;-76
2023/07/23 10:30:36;;;;;;;;;;;;;;;29.02;37.00;95433.75;10484062;28;1585;-74
2023/07/23 10:35:41;;;;;;;;;;;;;;;28.81;36.47;95444.84;10485273;28;1784;-74
2023/07/23 10:40:44;;;;;;;;;;;;;;;28.80;37.20;95423.91;10483535;28;4620;-74
2023/07/23 10:45:49;;;;;;;;;;;;;;;28.47;39.70;95437.03;10481673;28;1987;-74
2023/07/23 10:50:55;;;;;;;;;;;;;;;29.31;36.63;95422.56;10485531;28;1879;-76
2023/07/23 10:56:08;;;;;;;;;;;;;;;30.55;34.50;95409.81;10486362;28;1851;-75
2023/07/23 11:01:16;;;;;;;;;;;;;;;30.50;36.51;95412.22;10482364;28;1982;-74
2023/07/23 11:06:19;;;;;;;;;;;;;;;30.41;35.81;95393.28;10480388;28;2145;-74
2023/07/23 11:11:23;;;;;;;;;;;;;;;31.04;33.38;95387.47;10476275;28;1847;-75
2023/07/23 11:16:28;;;;;;;;;;;;;;;31.03;34.57;95389.44;10480072;28;1872;-75
2023/07/23 11:21:35;;;;;;;;;;;;;;;31.19;31.57;95395.22;10481991;28;2030;-76
2023/07/23 11:26:41;;;;;;;;;;;;;;;30.82;33.02;95389.72;10463294;28;2058;-75
2023/07/23 11:31:50;;;;;;;;;;;;;;;30.88;34.09;95371.41;10483804;28;1956;-76
2023/07/23 11:36:56;;;;;;;;;;;;;;;30.55;32.77;95382.06;10481634;28;4536;-76
2023/07/23 11:42:03;;;;;;;;;;;;;;;29.84;35.16;95377.16;10480157;28;2002;-76
2023/07/23 11:47:07;;;;;;;;;;;;;;;30.12;34.27;95365.84;10481292;28;1921;-75
2023/07/23 11:52:13;;;;;;;;;;;;;;;29.52;34.78;95372.63;10484511;28;2172;-74
2023/07/23 11:57:21;;;;;;;;;;;;;;;28.61;36.24;95358.00;10495527;28;1928;-75
2023/07/23 12:02:27;;;;;;;;;;;;;;;29.11;37.13;95357.81;10497322;28;1910;-76
2023/07/23 12:07:32;;;;;;;;;;;;;;;29.39;38.27;95352.09;10478497;28;1832;-76
2023/07/23 12:12:40;;;;;;;;;;;;;;;30.07;36.10;95351.59;10482459;28;1819;-75
2023/07/23 12:17:52;;;;;;;;;;;;;;;30.33;35.13;95348.22;10482812;28;1824;-75
2023/07/23 12:22:56;;;;;;;;;;;;;;;30.72;34.14;95347.00;10481027;28;1907;-73
2023/07/23 12:28:03;;;;;;;;;;;;;;;30.89;35.11;95337.69;10483540;28;1955;-74
2023/07/23 12:33:08;;;;;;;;;;;;;;;30.75;36.09;95335.09;10484233;28;1913;-75
2023/07/23 12:38:13;;;;;;;;;;;;;;;30.46;34.87;95334.59;10477614;28;4540;-76
2023/07/23 12:43:17;;;;;;;;;;;;;;;30.15;34.96;95315.13;10483313;28;1918;-75
2023/07/23 12:48:21;;;;;;;;;;;;;;;29.96;36.25;95318.44;10480247;28;2290;-75
2023/07/23 12:53:25;;;;;;;;;;;;;;;29.77;36.29;95316.25;10478004;28;2084;-75
2023/07/23 12:58:29;;;;;;;;;;;;;;;30.50;33.85;95306.84;10485488;28;1882;-75
2023/07/23 13:03:38;;;;;;;;;;;;;;;30.82;34.46;95300.94;10497542;28;1969;-75
2023/07/23 13:08:49;;;;;;;;;;;;;;;30.37;35.89;95301.84;10484039;28;1881;-75
2023/07/23 13:13:52;;;;;;;;;;;;;;;30.83;34.27;95314.38;10486282;28;1872;-74
2023/07/23 13:19:04;;;;;;;;;;;;;;;30.19;35.66;95308.75;10487907;28;1840;-74
2023/07/23 13:24:08;;;;;;;;;;;;;;;30.27;35.86;95315.81;10486279;28;1907;-75
2023/07/23 13:29:14;;;;;;;;;;;;;;;29.90;35.81;95303.47;10489490;28;1832;-75
2023/07/23 13:34:27;;;;;;;;;;;;;;;30.02;36.53;95316.03;10487743;28;1884;-75
2023/07/23 13:39:39;;;;;;;;;;;;;;;30.24;36.12;95305.56;10488200;28;1940;-76
2023/07/23 13:44:47;;;;;;;;;;;;;;;30.32;36.06;95309.81;10487335;28;2443;-76
2023/07/23 13:49:53;;;;;;;;;;;;;;;30.87;35.45;95292.94;10481633;28;1955;-76
2023/07/23 13:55:01;;;;;;;;;;;;;;;30.25;36.91;95290.47;10484758;28;1828;-75
2023/07/23 14:00:13;;;;;;;;;;;;;;;30.47;37.94;95302.91;10486392;28;2049;-76
2023/07/23 14:05:25;;;;;;;;;;;;;;;30.24;36.73;95311.88;10478581;28;1993;-76
2023/07/23 14:10:29;;;;;;;;;;;;;;;30.28;36.66;95300.72;10482237;28;1867;-76
2023/07/23 14:15:36;;;;;;;;;;;;;;;31.07;36.56;95308.91;10484148;28;2028;-76
2023/07/23 14:25:58;;;;;;;;;;;;;;;30.68;34.98;95294.38;10483238;28;1993;-77
2023/07/23 14:31:01;;;;;;;;;;;;;;;30.17;36.70;95289.00;10483591;28;1875;-75
2023/07/23 14:36:07;;;;;;;;;;;;;;;30.13;37.60;95292.56;10484896;28;4600;-76
2023/07/23 14:41:13;;;;;;;;;;;;;;;30.20;36.48;95299.25;10490186;28;1934;-75
2023/07/23 14:46:23;;;;;;;;;;;;;;;30.55;37.21;95286.97;10487334;28;1932;-73
2023/07/23 14:56:47;;;;;;;;;;;;;;;30.47;34.33;95294.56;10481957;28;2018;-74
2023/07/23 15:01:52;;;;;;;;;;;;;;;29.95;35.71;95308.56;10487668;28;1885;-72
2023/07/23 15:07:03;;;;;;;;;;;;;;;30.01;35.16;95304.16;10487006;28;1993;-76
2023/07/23 15:12:12;;;;;;;;;;;;;;;29.76;34.87;95303.59;10488226;28;1753;-77
2023/07/23 15:17:24;;;;;;;;;;;;;;;29.30;35.86;95299.19;10490902;28;1902;-79
2023/07/23 15:22:35;;;;;;;;;;;;;;;29.30;36.28;95305.50;10486318;28;1922;-79
2023/07/23 15:27:41;;;;;;;;;;;;;;;28.79;33.15;95295.09;10486684;28;1828;-77
2023/07/23 15:32:49;;;;;;;;;;;;;;;28.84;34.16;95296.69;10493371;28;1899;-79
2023/07/23 15:37:54;;;;;;;;;;;;;;;28.56;35.34;95292.84;10480653;28;4600;-77
2023/07/23 15:43:06;;;;;;;;;;;;;;;28.77;35.39;95301.06;10482550;28;2130;-79
2023/07/23 15:48:16;;;;;;;;;;;;;;;28.58;35.22;95300.75;10483382;28;1856;-80
2023/07/23 15:53:30;;;;;;;;;;;;;;;28.31;36.06;95305.91;10481935;28;1883;-80
2023/07/23 15:58:36;;;;;;;;;;;;;;;27.98;36.13;95306.00;10482523;28;1842;-79
2023/07/23 16:03:41;;;;;;;;;;;;;;;27.88;37.43;95295.78;10485273;28;1981;-78
2023/07/23 16:08:48;;;;;;;;;;;;;;;27.78;38.53;95291.03;10483356;28;2059;-80
2023/07/23 16:13:54;;;;;;;;;;;;;;;27.79;38.38;95306.41;10488126;28;1859;-83
2023/07/23 16:19:14;;;;;;;;;;;;;;;28.02;37.13;95292.97;10491605;28;1891;-82
2023/07/23 16:24:41;;;;;;;;;;;;;;;28.16;37.46;95294.13;10491410;28;1922;-84
2023/07/23 16:29:52;;;;;;;;;;;;;;;28.15;38.11;95300.84;10490247;28;1899;-83
2023/07/23 16:35:01;;;;;;;;;;;;;;;27.95;38.99;95293.00;10488420;28;2517;-84
2023/07/23 16:40:09;;;;;;;;;;;;;;;27.49;40.30;95290.25;10495515;28;4694;-82
2023/07/23 16:45:46;;;;;;;;;;;;;;;27.30;42.14;95294.19;10485867;28;2310;-83
2023/07/23 16:50:57;;;;;;;;;;;;;;;27.13;42.34;95294.94;10482685;28;1879;-84
2023/07/23 17:06:47;;;;;;;;;;;;;;;26.72;43.55;95291.66;10487728;28;1976;-84
2023/07/23 17:12:03;;;;;;;;;;;;;;;26.58;44.92;95293.19;10496904;28;1804;-84
2023/07/23 17:17:08;;;;;;;;;;;;;;;26.53;45.41;95290.81;10484740;28;2083;-81
2023/07/23 17:22:28;;;;;;;;;;;;;;;26.81;45.66;95290.13;10489379;28;1892;-83
2023/07/23 17:27:35;;;;;;;;;;;;;;;26.52;45.89;95288.44;10489077;28;2360;-83
2023/07/23 17:32:44;;;;;;;;;;;;;;;26.27;47.42;95286.31;10490619;28;1794;-83
2023/07/23 17:38:03;;;;;;;;;;;;;;;26.14;49.30;95285.09;10483286;28;4544;-81
2023/07/23 17:43:08;;;;;;;;;;;;;;;25.98;51.07;95288.16;10489686;28;1969;-82
2023/07/23 17:48:18;;;;;;;;;;;;;;;25.88;51.30;95286.91;10497304;28;1891;-82
2023/07/23 17:53:23;;;;;;;;;;;;;;;25.80;51.27;95282.53;10496697;28;1870;-82
2023/07/23 17:58:29;;;;;;;;;;;;;;;25.78;53.76;95279.38;10494807;28;1863;-80
2023/07/23 18:03:35;;;;;;;;;;;;;;;25.70;54.52;95279.66;10496880;28;1906;-80
2023/07/23 18:08:49;;;;;;;;;;;;;;;25.73;54.70;95281.69;10492362;28;1832;-86
2023/07/23 18:13:58;;;;;;;;;;;;;;;25.45;55.88;95276.72;10484266;28;1864;-74
2023/07/23 18:19:05;;;;;;;;;;;;;;;25.21;58.61;95273.41;10485372;28;1903;-75
2023/07/23 18:24:16;;;;;;;;;;;;;;;24.85;60.60;95277.75;10488168;28;2688;-81
2023/07/23 18:35:30;;;;;;;;;;;;;;;24.39;65.10;95277.25;10491385;28;1848;-79
2023/07/23 18:40:34;;;;;;;;;;;;;;;24.10;66.57;95281.53;10484142;28;4541;-79
2023/07/23 18:45:37;;;;;;;;;;;;;;;23.92;69.07;95275.81;10493661;28;1911;-81
2023/07/23 18:50:43;;;;;;;;;;;;;;;23.71;71.35;95282.56;10484332;28;1899;-78
2023/07/23 18:55:46;;;;;;;;;;;;;;;23.60;74.17;95286.28;10498255;28;1935;-85
2023/07/23 19:00:55;;;;;;;;;;;;;;;23.59;76.42;95288.25;10468679;28;1852;-83
2023/07/23 19:06:03;;;;;;;;;;;;;;;23.52;79.32;95285.41;10487442;28;1993;-81
2023/07/23 19:11:08;;;;;;;;;;;;;;;23.59;77.73;95284.72;10483560;28;1844;-80
2023/07/23 19:16:19;;;;;;;;;;;;;;;23.55;79.20;95281.94;10495333;28;1932;-80
2023/07/23 19:21:25;;;;;;;;;;;;;;;23.52;81.71;95290.09;10483016;28;2398;-81
2023/07/23 19:26:31;;;;;;;;;;;;;;;23.50;86.23;95281.44;10485554;28;1977;-79
2023/07/23 19:31:40;;;;;;;;;;;;;;;23.42;87.51;95277.81;10484204;28;1840;-80
2023/07/23 19:36:46;;;;;;;;;;;;;;;23.39;90.24;95275.78;10485389;28;4520;-81
2023/07/23 19:41:53;;;;;;;;;;;;;;;23.30;91.66;95278.78;10482872;28;1977;-81
2023/07/23 19:46:57;;;;;;;;;;;;;;;23.32;92.41;95275.66;10483735;28;1891;-79
2023/07/23 19:52:02;;;;;;;;;;;;;;;23.18;90.56;95271.53;10483744;28;1882;-80
2023/07/23 19:57:07;;;;;;;;;;;;;;;22.95;95.36;95268.00;10483393;28;1824;-79
2023/07/23 20:02:13;;;;;;;;;;;;;;;23.00;100.00;95269.66;10485572;28;1864;-69
2023/07/23 20:07:16;;;;;;;;;;;;;;;22.81;100.00;95275.94;10483500;28;1987;-68
2023/07/23 20:12:20;;;;;;;;;;;;;;;22.77;100.00;95264.91;10480496;28;1801;-72
2023/07/23 20:17:27;;;;;;;;;;;;;;;22.65;100.00;95263.16;10479782;28;2411;-70
2023/07/23 20:22:33;;;;;;;;;;;;;;;22.52;100.00;95266.38;10479320;28;1898;-69
2023/07/23 20:27:39;;;;;;;;;;;;;;;22.51;100.00;95267.56;10482718;28;1988;-70
2023/07/23 20:32:42;;;;;;;;;;;;;;;22.46;100.00;95267.84;10484911;28;1812;-70
2023/07/23 20:37:46;;;;;;;;;;;;;;;22.46;100.00;95278.78;10479577;28;4912;-71
2023/07/23 20:42:51;;;;;;;;;;;;;;;22.27;100.00;95268.66;10483789;28;1860;-69
2023/07/23 20:47:55;;;;;;;;;;;;;;;22.32;100.00;95262.88;10489114;28;1903;-70
2023/07/23 20:53:02;;;;;;;;;;;;;;;22.30;100.00;95262.47;10480389;28;1898;-70
2023/07/23 20:58:11;;;;;;;;;;;;;;;22.01;100.00;95259.13;10476456;28;1888;-68
2023/07/23 21:03:20;;;;;;;;;;;;;;;21.95;100.00;95254.25;10477618;28;1852;-69
2023/07/23 21:08:24;;;;;;;;;;;;;;;21.95;100.00;95257.81;10481014;28;1922;-69
2023/07/23 21:13:29;;;;;;;;;;;;;;;21.82;100.00;95245.41;10476158;28;2254;-74
2023/07/23 21:18:32;;;;;;;;;;;;;;;21.89;100.00;95242.03;10482157;28;1936;-69
2023/07/23 21:23:37;;;;;;;;;;;;;;;21.88;100.00;95241.22;10494436;28;1913;-68
2023/07/23 21:28:41;;;;;;;;;;;;;;;21.93;100.00;95245.63;10485353;28;1883;-69
2023/07/23 21:33:44;;;;;;;;;;;;;;;21.85;100.00;95244.69;10495606;28;1880;-70
2023/07/23 21:38:53;;;;;;;;;;;;;;;21.80;100.00;95234.03;10484064;28;4686;-70
2023/07/23 21:43:59;;;;;;;;;;;;;;;21.75;100.00;95235.09;10479174;28;1973;-69
2023/07/23 21:49:04;;;;;;;;;;;;;;;21.75;100.00;95228.81;10486365;28;2220;-69
2023/07/23 21:54:10;;;;;;;;;;;;;;;21.72;100.00;95222.16;10482772;28;1836;-69
2023/07/23 21:59:16;;;;;;;;;;;;;;;21.67;100.00;95216.94;10480170;28;1920;-69
2023/07/23 22:04:19;;;;;;;;;;;;;;;21.53;100.00;95216.66;10480236;28;1969;-69
2023/07/23 22:09:23;;;;;;;;;;;;;;;21.36;100.00;95225.22;10479692;28;2431;-67
2023/07/23 22:14:27;;;;;;;;;;;;;;;21.30;100.00;95211.81;10483078;28;1957;-68
2023/07/23 22:19:30;;;;;;;;;;;;;;;21.46;100.00;95219.22;10480455;28;1980;-68
2023/07/23 22:24:35;;;;;;;;;;;;;;;21.43;100.00;95211.72;10486787;28;1913;-67
2023/07/23 22:29:38;;;;;;;;;;;;;;;21.40;100.00;95202.31;10479650;28;1875;-69
2023/07/23 22:34:43;;;;;;;;;;;;;;;21.30;100.00;95192.69;10475959;28;1854;-68
2023/07/23 22:39:48;;;;;;;;;;;;;;;21.34;100.00;95192.78;10483012;28;4580;-66
2023/07/23 22:44:51;;;;;;;;;;;;;;;21.29;100.00;95182.91;10486679;28;1984;-69
2023/07/23 22:49:55;;;;;;;;;;;;;;;21.19;100.00;95179.94;10479782;28;1997;-68
2023/07/23 22:55:04;;;;;;;;;;;;;;;21.12;100.00;95166.91;10475510;28;1871;-69
2023/07/23 23:00:09;;;;;;;;;;;;;;;21.14;100.00;95164.59;10495535;28;1888;-72
2023/07/23 23:05:14;;;;;;;;;;;;;;;21.08;100.00;95148.81;10478468;28;2312;-73
2023/07/23 23:10:18;;;;;;;;;;;;;;;20.97;100.00;95140.38;10480850;28;1887;-68
2023/07/23 23:15:22;;;;;;;;;;;;;;;20.95;100.00;95138.00;10481889;28;2021;-68
2023/07/23 23:20:34;;;;;;;;;;;;;;;20.91;100.00;95130.84;10478689;28;1905;-68
2023/07/23 23:25:38;;;;;;;;;;;;;;;20.90;100.00;95123.81;10480944;28;1936;-68
2023/07/23 23:30:44;;;;;;;;;;;;;;;20.81;100.00;95124.00;10482285;28;1824;-69
2023/07/23 23:35:46;;;;;;;;;;;;;;;20.63;100.00;95122.78;10481443;28;1843;-69
2023/07/23 23:40:49;;;;;;;;;;;;;;;20.74;100.00;95112.91;10477141;28;4960;-69
2023/07/23 23:46:00;;;;;;;;;;;;;;;20.78;100.00;95108.31;10457536;28;1989;-70
2023/07/23 23:51:04;;;;;;;;;;;;;;;20.84;100.00;95101.44;10479153;28;1941;-68
2023/07/23 23:56:10;;;;;;;;;;;;;;;20.78;100.00;95086.47;10481562;28;2024;-69
